sensor_id;sensor_type;location;lat;lon;timestamp;temperature;humidity
12655;DHT22;6392;44.644;11.448;2023-05-29T00:00:37;23.10;99.90
12655;DHT22;6392;44.644;11.448;2023-05-29T00:03:03;23.10;99.90
12655;DHT22;6392;44.644;11.448;2023-05-29T00:05:30;23.10;99.90
12655;DHT22;6392;44.644;11.448;2023-05-29T00:07:57;23.00;99.90
12655;DHT22;6392;44.644;11.448;2023-05-29T00:10:24;23.00;99.90
12655;DHT22;6392;44.644;11.448;2023-05-29T00:12:52;22.90;99.90
12655;DHT22;6392;44.644;11.448;2023-05-29T00:15:21;22.90;99.90
12655;DHT22;6392;44.644;11.448;2023-05-29T00:17:48;22.90;99.90
12655;DHT22;6392;44.644;11.448;2023-05-29T00:20:16;22.80;99.90
12655;DHT22;6392;44.644;11.448;2023-05-29T00:22:43;22.80;99.90
12655;DHT22;6392;44.644;11.448;2023-05-29T00:25:10;22.80;99.90
12655;DHT22;6392;44.644;11.448;2023-05-29T00:27:37;22.80;99.90
12655;DHT22;6392;44.644;11.448;2023-05-29T00:30:06;22.70;99.90
12655;DHT22;6392;44.644;11.448;2023-05-29T00:32:33;22.60;99.90
12655;DHT22;6392;44.644;11.448;2023-05-29T00:35:00;22.50;99.90
12655;DHT22;6392;44.644;11.448;2023-05-29T00:37:26;22.30;99.90
12655;DHT22;6392;44.644;11.448;2023-05-29T00:39:53;22.20;99.90
12655;DHT22;6392;44.644;11.448;2023-05-29T00:42:20;22.20;99.90
12655;DHT22;6392;44.644;11.448;2023-05-29T00:44:47;22.20;99.90
12655;DHT22;6392;44.644;11.448;2023-05-29T00:47:15;22.20;99.90
12655;DHT22;6392;44.644;11.448;2023-05-29T00:49:42;22.20;99.90
12655;DHT22;6392;44.644;11.448;2023-05-29T00:52:09;22.20;99.90
12655;DHT22;6392;44.644;11.448;2023-05-29T00:54:36;22.20;99.90
12655;DHT22;6392;44.644;11.448;2023-05-29T00:57:03;22.20;99.90
12655;DHT22;6392;44.644;11.448;2023-05-29T00:59:31;22.20;99.90
12655;DHT22;6392;44.644;11.448;2023-05-29T01:01:58;22.20;99.90
12655;DHT22;6392;44.644;11.448;2023-05-29T01:04:27;22.10;99.90
12655;DHT22;6392;44.644;11.448;2023-05-29T01:06:53;22.10;99.90
12655;DHT22;6392;44.644;11.448;2023-05-29T01:09:20;22.20;99.90
12655;DHT22;6392;44.644;11.448;2023-05-29T01:11:49;22.20;99.90
12655;DHT22;6392;44.644;11.448;2023-05-29T01:14:23;22.20;99.90
12655;DHT22;6392;44.644;11.448;2023-05-29T01:16:51;22.20;99.90
12655;DHT22;6392;44.644;11.448;2023-05-29T01:19:25;22.10;99.90
12655;DHT22;6392;44.644;11.448;2023-05-29T01:22:02;22.10;99.90
12655;DHT22;6392;44.644;11.448;2023-05-29T01:24:37;22.10;99.90
12655;DHT22;6392;44.644;11.448;2023-05-29T01:27:05;22.10;99.90
12655;DHT22;6392;44.644;11.448;2023-05-29T01:29:34;22.00;99.90
12655;DHT22;6392;44.644;11.448;2023-05-29T01:32:03;22.10;99.90
12655;DHT22;6392;44.644;11.448;2023-05-29T01:34:31;22.10;99.90
12655;DHT22;6392;44.644;11.448;2023-05-29T01:36:58;22.00;99.90
12655;DHT22;6392;44.644;11.448;2023-05-29T01:39:24;22.00;99.90
12655;DHT22;6392;44.644;11.448;2023-05-29T01:41:54;22.00;99.90
12655;DHT22;6392;44.644;11.448;2023-05-29T01:44:22;22.00;99.90
12655;DHT22;6392;44.644;11.448;2023-05-29T01:46:49;22.00;99.90
12655;DHT22;6392;44.644;11.448;2023-05-29T01:49:16;22.00;99.90
12655;DHT22;6392;44.644;11.448;2023-05-29T01:51:43;22.00;99.90
12655;DHT22;6392;44.644;11.448;2023-05-29T01:54:10;21.90;99.90
12655;DHT22;6392;44.644;11.448;2023-05-29T01:56:37;21.90;99.90
12655;DHT22;6392;44.644;11.448;2023-05-29T01:59:05;21.80;99.90
12655;DHT22;6392;44.644;11.448;2023-05-29T02:01:33;21.80;99.90
12655;DHT22;6392;44.644;11.448;2023-05-29T02:04:00;21.80;99.90
12655;DHT22;6392;44.644;11.448;2023-05-29T02:06:27;21.80;99.90
12655;DHT22;6392;44.644;11.448;2023-05-29T02:08:53;21.60;99.90
12655;DHT22;6392;44.644;11.448;2023-05-29T02:11:20;21.60;99.90
12655;DHT22;6392;44.644;11.448;2023-05-29T02:13:47;21.40;99.90
12655;DHT22;6392;44.644;11.448;2023-05-29T02:16:14;21.30;99.90
12655;DHT22;6392;44.644;11.448;2023-05-29T02:18:43;21.30;99.90
12655;DHT22;6392;44.644;11.448;2023-05-29T02:21:10;21.30;99.90
12655;DHT22;6392;44.644;11.448;2023-05-29T02:23:37;21.40;99.90
12655;DHT22;6392;44.644;11.448;2023-05-29T02:26:04;21.40;99.90
12655;DHT22;6392;44.644;11.448;2023-05-29T02:28:31;21.50;99.90
12655;DHT22;6392;44.644;11.448;2023-05-29T02:30:58;21.50;99.90
12655;DHT22;6392;44.644;11.448;2023-05-29T02:33:25;21.50;99.90
12655;DHT22;6392;44.644;11.448;2023-05-29T02:35:53;21.60;99.90
12655;DHT22;6392;44.644;11.448;2023-05-29T02:38:19;21.60;99.90
12655;DHT22;6392;44.644;11.448;2023-05-29T02:40:46;21.50;99.90
12655;DHT22;6392;44.644;11.448;2023-05-29T02:43:13;21.50;99.90
12655;DHT22;6392;44.644;11.448;2023-05-29T02:45:40;21.40;99.90
12655;DHT22;6392;44.644;11.448;2023-05-29T02:48:06;21.30;99.90
12655;DHT22;6392;44.644;11.448;2023-05-29T02:50:33;21.30;99.90
12655;DHT22;6392;44.644;11.448;2023-05-29T02:53:01;21.30;99.90
12655;DHT22;6392;44.644;11.448;2023-05-29T02:55:28;21.20;99.90
12655;DHT22;6392;44.644;11.448;2023-05-29T02:57:57;21.30;99.90
12655;DHT22;6392;44.644;11.448;2023-05-29T03:00:25;21.20;99.90
12655;DHT22;6392;44.644;11.448;2023-05-29T03:02:53;21.30;99.90
12655;DHT22;6392;44.644;11.448;2023-05-29T03:05:20;21.30;99.90
12655;DHT22;6392;44.644;11.448;2023-05-29T03:07:47;21.30;99.90
12655;DHT22;6392;44.644;11.448;2023-05-29T03:10:15;21.30;99.90
12655;DHT22;6392;44.644;11.448;2023-05-29T03:12:42;21.30;99.90
12655;DHT22;6392;44.644;11.448;2023-05-29T03:15:09;21.20;99.90
12655;DHT22;6392;44.644;11.448;2023-05-29T03:17:36;21.10;99.90
12655;DHT22;6392;44.644;11.448;2023-05-29T03:20:04;21.10;99.90
12655;DHT22;6392;44.644;11.448;2023-05-29T03:22:33;21.10;99.90
12655;DHT22;6392;44.644;11.448;2023-05-29T03:25:01;21.10;99.90
12655;DHT22;6392;44.644;11.448;2023-05-29T03:27:29;21.10;99.90
12655;DHT22;6392;44.644;11.448;2023-05-29T03:29:56;21.20;99.90
12655;DHT22;6392;44.644;11.448;2023-05-29T03:32:23;21.20;99.90
12655;DHT22;6392;44.644;11.448;2023-05-29T03:34:50;21.20;99.90
12655;DHT22;6392;44.644;11.448;2023-05-29T03:37:16;21.20;99.90
12655;DHT22;6392;44.644;11.448;2023-05-29T03:39:43;21.10;99.90
12655;DHT22;6392;44.644;11.448;2023-05-29T03:42:10;21.10;99.90
12655;DHT22;6392;44.644;11.448;2023-05-29T03:44:38;21.10;99.90
12655;DHT22;6392;44.644;11.448;2023-05-29T03:47:05;21.10;99.90
12655;DHT22;6392;44.644;11.448;2023-05-29T03:49:34;21.00;99.90
12655;DHT22;6392;44.644;11.448;2023-05-29T03:52:00;21.00;99.90
12655;DHT22;6392;44.644;11.448;2023-05-29T03:54:27;21.00;99.90
12655;DHT22;6392;44.644;11.448;2023-05-29T03:56:54;21.00;99.90
12655;DHT22;6392;44.644;11.448;2023-05-29T03:59:21;20.90;99.90
12655;DHT22;6392;44.644;11.448;2023-05-29T04:01:49;20.80;99.90
12655;DHT22;6392;44.644;11.448;2023-05-29T04:04:15;20.60;99.90
12655;DHT22;6392;44.644;11.448;2023-05-29T04:06:42;20.50;99.90
12655;DHT22;6392;44.644;11.448;2023-05-29T04:09:10;20.40;99.90
12655;DHT22;6392;44.644;11.448;2023-05-29T04:11:37;20.50;99.90
12655;DHT22;6392;44.644;11.448;2023-05-29T04:14:04;20.50;99.90
12655;DHT22;6392;44.644;11.448;2023-05-29T04:16:30;20.60;99.90
12655;DHT22;6392;44.644;11.448;2023-05-29T04:18:59;20.60;99.90
12655;DHT22;6392;44.644;11.448;2023-05-29T04:21:25;20.60;99.90
12655;DHT22;6392;44.644;11.448;2023-05-29T04:23:52;20.60;99.90
12655;DHT22;6392;44.644;11.448;2023-05-29T04:26:20;20.60;99.90
12655;DHT22;6392;44.644;11.448;2023-05-29T04:28:50;20.60;99.90
12655;DHT22;6392;44.644;11.448;2023-05-29T04:31:17;20.70;99.90
12655;DHT22;6392;44.644;11.448;2023-05-29T04:33:48;20.70;99.90
12655;DHT22;6392;44.644;11.448;2023-05-29T04:36:16;20.80;99.90
12655;DHT22;6392;44.644;11.448;2023-05-29T04:38:42;20.70;99.90
12655;DHT22;6392;44.644;11.448;2023-05-29T04:41:10;20.70;99.90
12655;DHT22;6392;44.644;11.448;2023-05-29T04:43:37;20.70;99.90
12655;DHT22;6392;44.644;11.448;2023-05-29T04:46:05;20.70;99.90
12655;DHT22;6392;44.644;11.448;2023-05-29T04:48:37;20.80;99.90
12655;DHT22;6392;44.644;11.448;2023-05-29T04:51:05;20.80;99.90
12655;DHT22;6392;44.644;11.448;2023-05-29T04:53:37;20.80;99.90
12655;DHT22;6392;44.644;11.448;2023-05-29T04:56:04;20.90;99.90
12655;DHT22;6392;44.644;11.448;2023-05-29T04:58:31;20.90;99.90
12655;DHT22;6392;44.644;11.448;2023-05-29T05:00:58;20.90;99.90
12655;DHT22;6392;44.644;11.448;2023-05-29T05:03:24;20.90;99.90
12655;DHT22;6392;44.644;11.448;2023-05-29T05:05:51;20.80;99.90
12655;DHT22;6392;44.644;11.448;2023-05-29T05:08:18;20.80;99.90
12655;DHT22;6392;44.644;11.448;2023-05-29T05:10:46;20.80;99.90
12655;DHT22;6392;44.644;11.448;2023-05-29T05:13:13;20.70;99.90
12655;DHT22;6392;44.644;11.448;2023-05-29T05:15:40;20.70;99.90
12655;DHT22;6392;44.644;11.448;2023-05-29T05:18:07;20.80;99.90
12655;DHT22;6392;44.644;11.448;2023-05-29T05:20:33;20.90;99.90
12655;DHT22;6392;44.644;11.448;2023-05-29T05:23:00;20.90;99.90
12655;DHT22;6392;44.644;11.448;2023-05-29T05:25:27;21.00;99.90
12655;DHT22;6392;44.644;11.448;2023-05-29T05:27:55;21.00;99.90
12655;DHT22;6392;44.644;11.448;2023-05-29T05:30:22;21.00;99.90
12655;DHT22;6392;44.644;11.448;2023-05-29T05:32:49;21.10;99.90
12655;DHT22;6392;44.644;11.448;2023-05-29T05:35:15;21.10;99.90
12655;DHT22;6392;44.644;11.448;2023-05-29T05:37:42;21.10;99.90
12655;DHT22;6392;44.644;11.448;2023-05-29T05:40:09;21.10;99.90
12655;DHT22;6392;44.644;11.448;2023-05-29T05:42:36;21.10;99.90
12655;DHT22;6392;44.644;11.448;2023-05-29T05:45:05;21.10;99.90
12655;DHT22;6392;44.644;11.448;2023-05-29T05:47:32;21.10;99.90
12655;DHT22;6392;44.644;11.448;2023-05-29T05:49:58;21.20;99.90
12655;DHT22;6392;44.644;11.448;2023-05-29T05:52:25;21.20;99.90
12655;DHT22;6392;44.644;11.448;2023-05-29T05:54:56;21.20;99.90
12655;DHT22;6392;44.644;11.448;2023-05-29T05:57:23;21.30;99.90
12655;DHT22;6392;44.644;11.448;2023-05-29T05:59:51;21.30;99.90
12655;DHT22;6392;44.644;11.448;2023-05-29T06:02:19;21.30;99.90
12655;DHT22;6392;44.644;11.448;2023-05-29T06:04:46;21.30;99.90
12655;DHT22;6392;44.644;11.448;2023-05-29T06:07:14;21.40;99.90
12655;DHT22;6392;44.644;11.448;2023-05-29T06:09:40;21.40;99.90
12655;DHT22;6392;44.644;11.448;2023-05-29T06:12:08;21.50;99.90
12655;DHT22;6392;44.644;11.448;2023-05-29T06:14:35;21.50;99.90
12655;DHT22;6392;44.644;11.448;2023-05-29T06:17:01;21.50;99.90
12655;DHT22;6392;44.644;11.448;2023-05-29T06:19:30;21.60;99.90
12655;DHT22;6392;44.644;11.448;2023-05-29T06:21:56;21.60;99.90
12655;DHT22;6392;44.644;11.448;2023-05-29T06:24:23;21.70;99.90
12655;DHT22;6392;44.644;11.448;2023-05-29T06:26:50;21.70;99.90
12655;DHT22;6392;44.644;11.448;2023-05-29T06:29:17;21.80;99.90
12655;DHT22;6392;44.644;11.448;2023-05-29T06:31:43;21.80;99.90
12655;DHT22;6392;44.644;11.448;2023-05-29T06:34:10;21.80;99.90
12655;DHT22;6392;44.644;11.448;2023-05-29T06:36:38;21.90;99.90
12655;DHT22;6392;44.644;11.448;2023-05-29T06:39:07;22.00;99.90
12655;DHT22;6392;44.644;11.448;2023-05-29T06:41:34;22.00;99.90
12655;DHT22;6392;44.644;11.448;2023-05-29T06:44:00;22.00;99.90
12655;DHT22;6392;44.644;11.448;2023-05-29T06:46:28;22.00;99.90
12655;DHT22;6392;44.644;11.448;2023-05-29T06:48:55;22.00;99.90
12655;DHT22;6392;44.644;11.448;2023-05-29T06:51:21;22.00;99.90
12655;DHT22;6392;44.644;11.448;2023-05-29T06:53:49;22.00;99.90
12655;DHT22;6392;44.644;11.448;2023-05-29T06:56:16;22.00;99.90
12655;DHT22;6392;44.644;11.448;2023-05-29T06:58:43;22.10;99.90
12655;DHT22;6392;44.644;11.448;2023-05-29T07:01:11;22.10;99.90
12655;DHT22;6392;44.644;11.448;2023-05-29T07:03:37;22.10;99.90
12655;DHT22;6392;44.644;11.448;2023-05-29T07:06:04;22.10;99.90
12655;DHT22;6392;44.644;11.448;2023-05-29T07:08:31;22.20;99.90
12655;DHT22;6392;44.644;11.448;2023-05-29T07:11:00;22.20;99.90
12655;DHT22;6392;44.644;11.448;2023-05-29T07:13:27;22.20;99.90
12655;DHT22;6392;44.644;11.448;2023-05-29T07:15:54;22.20;99.90
12655;DHT22;6392;44.644;11.448;2023-05-29T07:18:21;22.30;99.90
12655;DHT22;6392;44.644;11.448;2023-05-29T07:20:47;22.30;99.90
12655;DHT22;6392;44.644;11.448;2023-05-29T07:23:14;22.30;99.90
12655;DHT22;6392;44.644;11.448;2023-05-29T07:25:41;22.30;99.90
12655;DHT22;6392;44.644;11.448;2023-05-29T07:28:09;22.30;99.90
12655;DHT22;6392;44.644;11.448;2023-05-29T07:30:36;22.20;99.90
12655;DHT22;6392;44.644;11.448;2023-05-29T07:33:02;22.30;99.90
12655;DHT22;6392;44.644;11.448;2023-05-29T07:35:29;22.30;99.90
12655;DHT22;6392;44.644;11.448;2023-05-29T07:37:58;22.30;99.90
12655;DHT22;6392;44.644;11.448;2023-05-29T07:40:25;22.30;99.90
12655;DHT22;6392;44.644;11.448;2023-05-29T07:42:51;22.30;99.90
12655;DHT22;6392;44.644;11.448;2023-05-29T07:45:19;22.40;99.90
12655;DHT22;6392;44.644;11.448;2023-05-29T07:47:46;22.40;99.90
12655;DHT22;6392;44.644;11.448;2023-05-29T07:50:13;22.40;99.90
12655;DHT22;6392;44.644;11.448;2023-05-29T07:52:41;22.40;99.90
12655;DHT22;6392;44.644;11.448;2023-05-29T07:55:08;22.40;99.90
12655;DHT22;6392;44.644;11.448;2023-05-29T07:57:35;22.50;99.90
12655;DHT22;6392;44.644;11.448;2023-05-29T08:00:02;22.50;99.90
12655;DHT22;6392;44.644;11.448;2023-05-29T08:02:35;22.50;99.90
12655;DHT22;6392;44.644;11.448;2023-05-29T08:05:02;22.60;99.90
12655;DHT22;6392;44.644;11.448;2023-05-29T08:07:28;22.60;99.90
12655;DHT22;6392;44.644;11.448;2023-05-29T08:09:55;22.60;99.90
12655;DHT22;6392;44.644;11.448;2023-05-29T08:12:22;22.70;99.90
12655;DHT22;6392;44.644;11.448;2023-05-29T08:14:49;22.70;99.90
12655;DHT22;6392;44.644;11.448;2023-05-29T08:17:16;22.70;99.90
12655;DHT22;6392;44.644;11.448;2023-05-29T08:19:44;22.70;99.90
12655;DHT22;6392;44.644;11.448;2023-05-29T08:22:12;22.70;99.90
12655;DHT22;6392;44.644;11.448;2023-05-29T08:24:39;22.70;99.90
12655;DHT22;6392;44.644;11.448;2023-05-29T08:27:05;22.70;99.90
12655;DHT22;6392;44.644;11.448;2023-05-29T08:29:32;22.70;99.90
12655;DHT22;6392;44.644;11.448;2023-05-29T08:31:59;22.80;99.90
12655;DHT22;6392;44.644;11.448;2023-05-29T08:34:26;22.80;99.90
12655;DHT22;6392;44.644;11.448;2023-05-29T08:36:54;22.80;99.90
12655;DHT22;6392;44.644;11.448;2023-05-29T08:39:21;22.80;99.90
12655;DHT22;6392;44.644;11.448;2023-05-29T08:41:49;22.80;99.90
12655;DHT22;6392;44.644;11.448;2023-05-29T08:44:18;22.90;99.90
12655;DHT22;6392;44.644;11.448;2023-05-29T08:46:47;22.90;99.90
12655;DHT22;6392;44.644;11.448;2023-05-29T08:49:16;22.90;99.90
12655;DHT22;6392;44.644;11.448;2023-05-29T08:51:43;22.90;99.90
12655;DHT22;6392;44.644;11.448;2023-05-29T08:54:17;22.90;99.90
12655;DHT22;6392;44.644;11.448;2023-05-29T08:56:44;22.90;99.90
12655;DHT22;6392;44.644;11.448;2023-05-29T08:59:10;22.90;99.90
12655;DHT22;6392;44.644;11.448;2023-05-29T09:01:37;22.90;99.90
12655;DHT22;6392;44.644;11.448;2023-05-29T09:04:05;23.00;99.90
12655;DHT22;6392;44.644;11.448;2023-05-29T09:06:33;23.00;99.90
12655;DHT22;6392;44.644;11.448;2023-05-29T09:09:00;23.00;99.90
12655;DHT22;6392;44.644;11.448;2023-05-29T09:11:28;23.00;99.90
12655;DHT22;6392;44.644;11.448;2023-05-29T09:13:55;23.00;99.90
12655;DHT22;6392;44.644;11.448;2023-05-29T09:16:23;23.00;99.90
12655;DHT22;6392;44.644;11.448;2023-05-29T09:18:50;23.10;99.90
12655;DHT22;6392;44.644;11.448;2023-05-29T09:21:24;23.10;99.90
12655;DHT22;6392;44.644;11.448;2023-05-29T09:23:51;23.10;99.90
12655;DHT22;6392;44.644;11.448;2023-05-29T09:26:18;23.10;99.90
12655;DHT22;6392;44.644;11.448;2023-05-29T09:28:48;23.10;99.90
12655;DHT22;6392;44.644;11.448;2023-05-29T09:31:16;23.10;99.90
12655;DHT22;6392;44.644;11.448;2023-05-29T09:33:46;23.10;99.90
12655;DHT22;6392;44.644;11.448;2023-05-29T09:36:19;23.10;99.90
12655;DHT22;6392;44.644;11.448;2023-05-29T09:38:46;23.20;99.90
12655;DHT22;6392;44.644;11.448;2023-05-29T09:41:12;23.20;99.90
12655;DHT22;6392;44.644;11.448;2023-05-29T09:43:40;23.20;99.90
12655;DHT22;6392;44.644;11.448;2023-05-29T09:46:12;23.20;99.90
12655;DHT22;6392;44.644;11.448;2023-05-29T09:48:41;23.20;99.90
12655;DHT22;6392;44.644;11.448;2023-05-29T09:51:12;23.30;99.90
12655;DHT22;6392;44.644;11.448;2023-05-29T09:53:45;23.30;99.90
12655;DHT22;6392;44.644;11.448;2023-05-29T09:56:12;23.30;99.90
12655;DHT22;6392;44.644;11.448;2023-05-29T09:58:41;23.20;99.90
12655;DHT22;6392;44.644;11.448;2023-05-29T10:01:12;23.30;99.90
12655;DHT22;6392;44.644;11.448;2023-05-29T10:03:41;23.30;99.90
12655;DHT22;6392;44.644;11.448;2023-05-29T10:06:07;23.40;99.90
12655;DHT22;6392;44.644;11.448;2023-05-29T10:08:37;23.50;99.90
12655;DHT22;6392;44.644;11.448;2023-05-29T10:11:04;23.50;99.90
12655;DHT22;6392;44.644;11.448;2023-05-29T10:13:36;23.50;99.90
12655;DHT22;6392;44.644;11.448;2023-05-29T10:16:05;23.50;99.90
12655;DHT22;6392;44.644;11.448;2023-05-29T10:18:37;23.50;99.90
12655;DHT22;6392;44.644;11.448;2023-05-29T10:21:04;23.60;99.90
12655;DHT22;6392;44.644;11.448;2023-05-29T10:23:33;23.60;99.90
12655;DHT22;6392;44.644;11.448;2023-05-29T10:26:04;23.60;99.90
12655;DHT22;6392;44.644;11.448;2023-05-29T10:28:32;23.60;99.90
12655;DHT22;6392;44.644;11.448;2023-05-29T10:31:01;23.50;99.90
12655;DHT22;6392;44.644;11.448;2023-05-29T10:33:40;23.60;99.90
12655;DHT22;6392;44.644;11.448;2023-05-29T10:36:12;23.50;99.90
12655;DHT22;6392;44.644;11.448;2023-05-29T10:38:40;23.60;99.90
12655;DHT22;6392;44.644;11.448;2023-05-29T10:43:53;23.60;99.90
12655;DHT22;6392;44.644;11.448;2023-05-29T10:46:20;23.60;99.90
12655;DHT22;6392;44.644;11.448;2023-05-29T10:48:50;23.60;99.90
12655;DHT22;6392;44.644;11.448;2023-05-29T10:51:26;23.60;99.90
12655;DHT22;6392;44.644;11.448;2023-05-29T10:53:53;23.60;99.90
12655;DHT22;6392;44.644;11.448;2023-05-29T10:56:21;23.60;99.90
12655;DHT22;6392;44.644;11.448;2023-05-29T10:58:51;23.60;99.90
12655;DHT22;6392;44.644;11.448;2023-05-29T11:01:20;23.70;99.90
12655;DHT22;6392;44.644;11.448;2023-05-29T11:03:47;23.60;99.90
12655;DHT22;6392;44.644;11.448;2023-05-29T11:06:18;23.60;99.90
12655;DHT22;6392;44.644;11.448;2023-05-29T11:08:45;23.60;99.90
12655;DHT22;6392;44.644;11.448;2023-05-29T11:11:12;23.70;99.90
12655;DHT22;6392;44.644;11.448;2023-05-29T11:13:40;23.70;99.90
12655;DHT22;6392;44.644;11.448;2023-05-29T11:16:13;23.80;99.90
12655;DHT22;6392;44.644;11.448;2023-05-29T11:18:41;23.80;99.90
12655;DHT22;6392;44.644;11.448;2023-05-29T11:21:13;23.80;99.90
12655;DHT22;6392;44.644;11.448;2023-05-29T11:23:43;23.80;99.90
12655;DHT22;6392;44.644;11.448;2023-05-29T11:26:11;23.80;99.90
12655;DHT22;6392;44.644;11.448;2023-05-29T11:28:38;23.90;99.90
12655;DHT22;6392;44.644;11.448;2023-05-29T11:31:06;23.90;99.90
12655;DHT22;6392;44.644;11.448;2023-05-29T11:33:35;23.90;99.90
12655;DHT22;6392;44.644;11.448;2023-05-29T11:36:02;23.90;99.90
12655;DHT22;6392;44.644;11.448;2023-05-29T11:38:29;23.90;99.90
12655;DHT22;6392;44.644;11.448;2023-05-29T11:41:00;24.00;99.90
12655;DHT22;6392;44.644;11.448;2023-05-29T11:43:28;24.00;99.90
12655;DHT22;6392;44.644;11.448;2023-05-29T11:45:55;24.00;99.90
12655;DHT22;6392;44.644;11.448;2023-05-29T11:48:21;24.00;99.90
12655;DHT22;6392;44.644;11.448;2023-05-29T11:50:49;24.00;99.90
12655;DHT22;6392;44.644;11.448;2023-05-29T11:53:16;24.10;99.90
12655;DHT22;6392;44.644;11.448;2023-05-29T11:55:43;24.00;99.90
12655;DHT22;6392;44.644;11.448;2023-05-29T11:58:11;24.10;99.90
12655;DHT22;6392;44.644;11.448;2023-05-29T12:00:38;24.10;99.90
12655;DHT22;6392;44.644;11.448;2023-05-29T12:03:06;24.20;99.90
12655;DHT22;6392;44.644;11.448;2023-05-29T12:05:43;24.30;99.90
12655;DHT22;6392;44.644;11.448;2023-05-29T12:08:10;24.40;99.90
12655;DHT22;6392;44.644;11.448;2023-05-29T12:10:37;24.50;99.90
12655;DHT22;6392;44.644;11.448;2023-05-29T12:13:14;24.70;99.90
12655;DHT22;6392;44.644;11.448;2023-05-29T12:15:44;24.80;99.90
12655;DHT22;6392;44.644;11.448;2023-05-29T12:18:12;25.00;99.90
12655;DHT22;6392;44.644;11.448;2023-05-29T12:20:38;25.00;99.90
12655;DHT22;6392;44.644;11.448;2023-05-29T12:23:05;25.00;99.90
12655;DHT22;6392;44.644;11.448;2023-05-29T12:25:33;25.00;99.90
12655;DHT22;6392;44.644;11.448;2023-05-29T12:28:02;25.20;99.90
12655;DHT22;6392;44.644;11.448;2023-05-29T12:30:30;25.20;99.90
12655;DHT22;6392;44.644;11.448;2023-05-29T12:32:57;25.20;99.90
12655;DHT22;6392;44.644;11.448;2023-05-29T12:35:25;25.30;99.90
12655;DHT22;6392;44.644;11.448;2023-05-29T12:37:53;25.40;99.90
12655;DHT22;6392;44.644;11.448;2023-05-29T12:40:21;25.30;99.90
12655;DHT22;6392;44.644;11.448;2023-05-29T12:42:48;25.20;99.90
12655;DHT22;6392;44.644;11.448;2023-05-29T12:45:17;25.20;99.90
12655;DHT22;6392;44.644;11.448;2023-05-29T12:47:45;25.30;99.90
12655;DHT22;6392;44.644;11.448;2023-05-29T12:50:22;25.40;99.90
12655;DHT22;6392;44.644;11.448;2023-05-29T12:52:59;25.40;99.90
12655;DHT22;6392;44.644;11.448;2023-05-29T12:55:27;25.50;99.90
12655;DHT22;6392;44.644;11.448;2023-05-29T12:57:54;25.60;99.90
12655;DHT22;6392;44.644;11.448;2023-05-29T13:00:21;25.70;99.90
12655;DHT22;6392;44.644;11.448;2023-05-29T13:02:49;25.90;99.90
12655;DHT22;6392;44.644;11.448;2023-05-29T13:05:16;26.10;99.90
12655;DHT22;6392;44.644;11.448;2023-05-29T13:07:44;26.10;99.90
12655;DHT22;6392;44.644;11.448;2023-05-29T13:10:12;25.90;99.90
12655;DHT22;6392;44.644;11.448;2023-05-29T13:12:39;25.70;99.90
12655;DHT22;6392;44.644;11.448;2023-05-29T13:15:06;25.60;99.90
12655;DHT22;6392;44.644;11.448;2023-05-29T13:17:34;25.70;99.90
12655;DHT22;6392;44.644;11.448;2023-05-29T13:20:02;26.00;99.90
12655;DHT22;6392;44.644;11.448;2023-05-29T13:22:32;26.20;99.90
12655;DHT22;6392;44.644;11.448;2023-05-29T13:24:59;26.30;99.90
12655;DHT22;6392;44.644;11.448;2023-05-29T13:27:27;26.50;99.90
12655;DHT22;6392;44.644;11.448;2023-05-29T13:29:54;26.70;99.90
12655;DHT22;6392;44.644;11.448;2023-05-29T13:32:21;26.50;99.90
12655;DHT22;6392;44.644;11.448;2023-05-29T13:34:47;26.30;99.90
12655;DHT22;6392;44.644;11.448;2023-05-29T13:37:15;26.10;99.90
12655;DHT22;6392;44.644;11.448;2023-05-29T13:39:42;25.90;99.90
12655;DHT22;6392;44.644;11.448;2023-05-29T13:42:09;25.90;99.90
12655;DHT22;6392;44.644;11.448;2023-05-29T13:44:36;26.00;99.90
12655;DHT22;6392;44.644;11.448;2023-05-29T13:47:04;26.00;99.90
12655;DHT22;6392;44.644;11.448;2023-05-29T13:49:31;26.00;99.90
12655;DHT22;6392;44.644;11.448;2023-05-29T13:51:58;26.00;99.90
12655;DHT22;6392;44.644;11.448;2023-05-29T13:54:26;26.10;99.90
12655;DHT22;6392;44.644;11.448;2023-05-29T13:56:55;26.20;99.90
12655;DHT22;6392;44.644;11.448;2023-05-29T13:59:22;26.30;99.90
12655;DHT22;6392;44.644;11.448;2023-05-29T14:01:49;26.40;99.90
12655;DHT22;6392;44.644;11.448;2023-05-29T14:04:15;26.40;99.90
12655;DHT22;6392;44.644;11.448;2023-05-29T14:06:42;26.40;99.90
12655;DHT22;6392;44.644;11.448;2023-05-29T14:09:09;26.30;99.90
12655;DHT22;6392;44.644;11.448;2023-05-29T14:11:37;26.30;99.90
12655;DHT22;6392;44.644;11.448;2023-05-29T14:14:04;26.30;99.90
12655;DHT22;6392;44.644;11.448;2023-05-29T14:16:31;26.40;99.90
12655;DHT22;6392;44.644;11.448;2023-05-29T14:18:58;26.60;99.90
12655;DHT22;6392;44.644;11.448;2023-05-29T14:21:25;26.90;99.90
12655;DHT22;6392;44.644;11.448;2023-05-29T14:23:52;27.20;99.90
12655;DHT22;6392;44.644;11.448;2023-05-29T14:26:19;27.40;99.90
12655;DHT22;6392;44.644;11.448;2023-05-29T14:28:47;27.50;99.90
12655;DHT22;6392;44.644;11.448;2023-05-29T14:31:13;27.70;99.90
12655;DHT22;6392;44.644;11.448;2023-05-29T14:33:40;28.00;99.90
12655;DHT22;6392;44.644;11.448;2023-05-29T14:36:07;28.10;99.90
12655;DHT22;6392;44.644;11.448;2023-05-29T14:38:34;28.20;99.90
12655;DHT22;6392;44.644;11.448;2023-05-29T14:41:01;28.30;99.90
12655;DHT22;6392;44.644;11.448;2023-05-29T14:43:28;28.30;99.90
12655;DHT22;6392;44.644;11.448;2023-05-29T14:45:57;28.20;99.90
12655;DHT22;6392;44.644;11.448;2023-05-29T14:48:24;28.20;99.90
12655;DHT22;6392;44.644;11.448;2023-05-29T14:50:51;28.20;99.90
12655;DHT22;6392;44.644;11.448;2023-05-29T14:53:17;28.20;99.90
12655;DHT22;6392;44.644;11.448;2023-05-29T14:55:46;28.30;99.90
12655;DHT22;6392;44.644;11.448;2023-05-29T14:58:13;28.20;99.90
12655;DHT22;6392;44.644;11.448;2023-05-29T15:00:40;28.20;99.90
12655;DHT22;6392;44.644;11.448;2023-05-29T15:03:08;28.20;99.90
12655;DHT22;6392;44.644;11.448;2023-05-29T15:05:34;28.20;99.90
12655;DHT22;6392;44.644;11.448;2023-05-29T15:08:03;28.40;99.90
12655;DHT22;6392;44.644;11.448;2023-05-29T15:10:29;28.50;99.90
12655;DHT22;6392;44.644;11.448;2023-05-29T15:12:57;28.70;99.90
12655;DHT22;6392;44.644;11.448;2023-05-29T15:15:24;28.90;99.90
12655;DHT22;6392;44.644;11.448;2023-05-29T15:17:51;28.80;99.90
12655;DHT22;6392;44.644;11.448;2023-05-29T15:20:22;28.90;99.90
12655;DHT22;6392;44.644;11.448;2023-05-29T15:22:49;28.80;99.90
12655;DHT22;6392;44.644;11.448;2023-05-29T15:25:17;28.80;99.90
12655;DHT22;6392;44.644;11.448;2023-05-29T15:27:44;28.90;99.90
12655;DHT22;6392;44.644;11.448;2023-05-29T15:30:12;28.90;99.90
12655;DHT22;6392;44.644;11.448;2023-05-29T15:32:40;28.90;99.90
12655;DHT22;6392;44.644;11.448;2023-05-29T15:35:07;28.80;99.90